sensor_id;sensor_type;location;lat;lon;timestamp;P1;durP1;ratioP1;P2;durP2;ratioP2
41923;SDS011;27613;48.116;11.656;2022-10-31T00:00:23;23.58;;;5.47;;
41923;SDS011;27613;48.116;11.656;2022-10-31T00:02:48;11.50;;;5.55;;
41923;SDS011;27613;48.116;11.656;2022-10-31T00:05:14;11.95;;;5.63;;
41923;SDS011;27613;48.116;11.656;2022-10-31T00:07:39;11.98;;;5.65;;
41923;SDS011;27613;48.116;11.656;2022-10-31T00:10:05;13.05;;;6.10;;
41923;SDS011;27613;48.116;11.656;2022-10-31T00:12:31;10.40;;;5.97;;
41923;SDS011;27613;48.116;11.656;2022-10-31T00:14:57;8.55;;;5.03;;
41923;SDS011;27613;48.116;11.656;2022-10-31T00:17:22;9.80;;;5.43;;
41923;SDS011;27613;48.116;11.656;2022-10-31T00:19:48;8.38;;;5.10;;
41923;SDS011;27613;48.116;11.656;2022-10-31T00:22:14;11.98;;;6.03;;
41923;SDS011;27613;48.116;11.656;2022-10-31T00:24:39;10.30;;;5.45;;
41923;SDS011;27613;48.116;11.656;2022-10-31T00:27:05;10.50;;;5.32;;
41923;SDS011;27613;48.116;11.656;2022-10-31T00:29:31;8.02;;;4.90;;
41923;SDS011;27613;48.116;11.656;2022-10-31T00:31:56;16.80;;;6.35;;
41923;SDS011;27613;48.116;11.656;2022-10-31T00:34:22;8.93;;;4.82;;
41923;SDS011;27613;48.116;11.656;2022-10-31T00:36:47;8.45;;;4.85;;
41923;SDS011;27613;48.116;11.656;2022-10-31T00:39:13;10.80;;;5.13;;
41923;SDS011;27613;48.116;11.656;2022-10-31T00:41:38;9.75;;;5.10;;
41923;SDS011;27613;48.116;11.656;2022-10-31T00:44:04;10.38;;;5.60;;
41923;SDS011;27613;48.116;11.656;2022-10-31T00:46:29;9.57;;;4.97;;
41923;SDS011;27613;48.116;11.656;2022-10-31T00:48:55;11.90;;;4.95;;
41923;SDS011;27613;48.116;11.656;2022-10-31T00:51:20;9.93;;;5.10;;
41923;SDS011;27613;48.116;11.656;2022-10-31T00:53:46;8.18;;;4.50;;
41923;SDS011;27613;48.116;11.656;2022-10-31T00:56:12;9.20;;;4.63;;
41923;SDS011;27613;48.116;11.656;2022-10-31T00:58:37;10.30;;;4.57;;
41923;SDS011;27613;48.116;11.656;2022-10-31T01:01:04;9.43;;;4.80;;
41923;SDS011;27613;48.116;11.656;2022-10-31T01:03:31;7.57;;;4.32;;
41923;SDS011;27613;48.116;11.656;2022-10-31T01:06:03;10.13;;;3.95;;
41923;SDS011;27613;48.116;11.656;2022-10-31T01:08:36;14.93;;;4.63;;
41923;SDS011;27613;48.116;11.656;2022-10-31T01:13:37;9.57;;;4.47;;
41923;SDS011;27613;48.116;11.656;2022-10-31T01:16:03;10.38;;;4.28;;
41923;SDS011;27613;48.116;11.656;2022-10-31T01:18:30;7.68;;;3.92;;
41923;SDS011;27613;48.116;11.656;2022-10-31T01:21:00;10.90;;;4.60;;
41923;SDS011;27613;48.116;11.656;2022-10-31T01:23:28;6.28;;;4.15;;
41923;SDS011;27613;48.116;11.656;2022-10-31T01:25:58;5.93;;;3.75;;
41923;SDS011;27613;48.116;11.656;2022-10-31T01:28:25;8.63;;;4.13;;
41923;SDS011;27613;48.116;11.656;2022-10-31T01:30:50;13.70;;;4.60;;
41923;SDS011;27613;48.116;11.656;2022-10-31T01:33:16;10.65;;;4.72;;
41923;SDS011;27613;48.116;11.656;2022-10-31T01:35:41;11.55;;;4.45;;
41923;SDS011;27613;48.116;11.656;2022-10-31T01:38:07;10.68;;;4.05;;
41923;SDS011;27613;48.116;11.656;2022-10-31T01:40:33;8.63;;;3.83;;
41923;SDS011;27613;48.116;11.656;2022-10-31T01:42:58;9.52;;;3.83;;
41923;SDS011;27613;48.116;11.656;2022-10-31T01:45:24;7.70;;;4.20;;
41923;SDS011;27613;48.116;11.656;2022-10-31T01:47:49;6.40;;;3.85;;
41923;SDS011;27613;48.116;11.656;2022-10-31T01:50:20;8.15;;;3.95;;
41923;SDS011;27613;48.116;11.656;2022-10-31T01:52:57;14.32;;;4.13;;
41923;SDS011;27613;48.116;11.656;2022-10-31T01:55:28;5.57;;;3.10;;
41923;SDS011;27613;48.116;11.656;2022-10-31T01:58:09;10.75;;;4.45;;
41923;SDS011;27613;48.116;11.656;2022-10-31T02:00:40;7.45;;;3.13;;
41923;SDS011;27613;48.116;11.656;2022-10-31T02:03:10;6.47;;;3.72;;
41923;SDS011;27613;48.116;11.656;2022-10-31T02:05:36;6.70;;;3.60;;
41923;SDS011;27613;48.116;11.656;2022-10-31T02:10:54;6.40;;;3.55;;
41923;SDS011;27613;48.116;11.656;2022-10-31T02:13:22;7.95;;;3.65;;
41923;SDS011;27613;48.116;11.656;2022-10-31T02:15:50;8.75;;;3.40;;
41923;SDS011;27613;48.116;11.656;2022-10-31T02:18:18;7.15;;;3.78;;
41923;SDS011;27613;48.116;11.656;2022-10-31T02:34:19;10.68;;;3.70;;
41923;SDS011;27613;48.116;11.656;2022-10-31T02:36:53;8.93;;;3.33;;
41923;SDS011;27613;48.116;11.656;2022-10-31T02:39:33;9.77;;;3.80;;
41923;SDS011;27613;48.116;11.656;2022-10-31T02:42:20;8.43;;;3.22;;
41923;SDS011;27613;48.116;11.656;2022-10-31T02:45:05;10.10;;;3.67;;
41923;SDS011;27613;48.116;11.656;2022-10-31T02:47:37;6.68;;;3.50;;
41923;SDS011;27613;48.116;11.656;2022-10-31T02:50:07;10.38;;;4.03;;
41923;SDS011;27613;48.116;11.656;2022-10-31T02:52:42;8.70;;;3.70;;
41923;SDS011;27613;48.116;11.656;2022-10-31T02:55:12;8.80;;;3.65;;
41923;SDS011;27613;48.116;11.656;2022-10-31T02:57:48;10.50;;;3.53;;
41923;SDS011;27613;48.116;11.656;2022-10-31T03:00:18;7.30;;;3.00;;
41923;SDS011;27613;48.116;11.656;2022-10-31T03:10:27;7.93;;;4.32;;
41923;SDS011;27613;48.116;11.656;2022-10-31T03:13:19;7.30;;;3.42;;
41923;SDS011;27613;48.116;11.656;2022-10-31T03:19:12;9.02;;;3.45;;
41923;SDS011;27613;48.116;11.656;2022-10-31T03:21:57;5.60;;;3.17;;
41923;SDS011;27613;48.116;11.656;2022-10-31T03:24:30;7.70;;;3.20;;
41923;SDS011;27613;48.116;11.656;2022-10-31T03:27:00;9.23;;;4.00;;
41923;SDS011;27613;48.116;11.656;2022-10-31T03:29:30;5.95;;;3.28;;
41923;SDS011;27613;48.116;11.656;2022-10-31T03:32:19;7.13;;;3.35;;
41923;SDS011;27613;48.116;11.656;2022-10-31T03:34:49;11.18;;;3.08;;
41923;SDS011;27613;48.116;11.656;2022-10-31T03:37:18;7.30;;;2.80;;
41923;SDS011;27613;48.116;11.656;2022-10-31T03:39:45;5.25;;;3.00;;
41923;SDS011;27613;48.116;11.656;2022-10-31T03:44:41;6.03;;;3.10;;
41923;SDS011;27613;48.116;11.656;2022-10-31T03:47:11;7.25;;;3.83;;
41923;SDS011;27613;48.116;11.656;2022-10-31T03:49:37;6.88;;;3.45;;
41923;SDS011;27613;48.116;11.656;2022-10-31T03:52:19;7.07;;;3.42;;
41923;SDS011;27613;48.116;11.656;2022-10-31T03:55:07;4.90;;;2.92;;
41923;SDS011;27613;48.116;11.656;2022-10-31T03:57:52;7.80;;;3.85;;
41923;SDS011;27613;48.116;11.656;2022-10-31T04:00:24;7.43;;;3.05;;
41923;SDS011;27613;48.116;11.656;2022-10-31T04:02:55;6.63;;;3.00;;
41923;SDS011;27613;48.116;11.656;2022-10-31T04:05:22;8.98;;;3.42;;
41923;SDS011;27613;48.116;11.656;2022-10-31T04:07:50;13.25;;;3.40;;
41923;SDS011;27613;48.116;11.656;2022-10-31T04:10:18;6.30;;;3.55;;
41923;SDS011;27613;48.116;11.656;2022-10-31T04:12:46;7.47;;;3.28;;
41923;SDS011;27613;48.116;11.656;2022-10-31T04:15:16;10.00;;;4.25;;
41923;SDS011;27613;48.116;11.656;2022-10-31T04:17:42;8.68;;;4.10;;
41923;SDS011;27613;48.116;11.656;2022-10-31T04:20:15;10.98;;;4.28;;
41923;SDS011;27613;48.116;11.656;2022-10-31T04:22:41;20.48;;;4.03;;
41923;SDS011;27613;48.116;11.656;2022-10-31T04:25:07;7.38;;;4.00;;
41923;SDS011;27613;48.116;11.656;2022-10-31T04:27:33;6.05;;;3.38;;
41923;SDS011;27613;48.116;11.656;2022-10-31T04:29:59;7.60;;;3.55;;
41923;SDS011;27613;48.116;11.656;2022-10-31T04:32:25;7.55;;;3.63;;
41923;SDS011;27613;48.116;11.656;2022-10-31T04:34:51;8.95;;;3.42;;
41923;SDS011;27613;48.116;11.656;2022-10-31T04:37:16;7.68;;;3.30;;
41923;SDS011;27613;48.116;11.656;2022-10-31T04:39:43;7.55;;;3.67;;
41923;SDS011;27613;48.116;11.656;2022-10-31T04:42:10;11.70;;;3.35;;
41923;SDS011;27613;48.116;11.656;2022-10-31T04:44:35;5.65;;;3.30;;
41923;SDS011;27613;48.116;11.656;2022-10-31T04:47:01;8.05;;;3.80;;
41923;SDS011;27613;48.116;11.656;2022-10-31T04:49:26;5.70;;;2.80;;
41923;SDS011;27613;48.116;11.656;2022-10-31T04:51:52;7.50;;;3.58;;
41923;SDS011;27613;48.116;11.656;2022-10-31T04:54:19;8.80;;;3.85;;
41923;SDS011;27613;48.116;11.656;2022-10-31T04:56:44;7.68;;;3.78;;
41923;SDS011;27613;48.116;11.656;2022-10-31T04:59:10;7.15;;;3.55;;
41923;SDS011;27613;48.116;11.656;2022-10-31T05:01:35;5.82;;;3.58;;
41923;SDS011;27613;48.116;11.656;2022-10-31T05:04:01;5.00;;;3.08;;
41923;SDS011;27613;48.116;11.656;2022-10-31T05:06:26;7.95;;;3.78;;
41923;SDS011;27613;48.116;11.656;2022-10-31T05:08:52;8.10;;;3.53;;
41923;SDS011;27613;48.116;11.656;2022-10-31T05:11:18;5.38;;;3.03;;
41923;SDS011;27613;48.116;11.656;2022-10-31T05:13:43;6.43;;;3.20;;
41923;SDS011;27613;48.116;11.656;2022-10-31T05:16:09;6.22;;;3.30;;
41923;SDS011;27613;48.116;11.656;2022-10-31T05:18:34;5.85;;;3.40;;
41923;SDS011;27613;48.116;11.656;2022-10-31T05:21:00;6.15;;;3.25;;
41923;SDS011;27613;48.116;11.656;2022-10-31T05:23:25;5.93;;;3.45;;
41923;SDS011;27613;48.116;11.656;2022-10-31T05:25:51;6.57;;;3.22;;
41923;SDS011;27613;48.116;11.656;2022-10-31T05:28:16;6.80;;;3.53;;
41923;SDS011;27613;48.116;11.656;2022-10-31T05:30:42;6.97;;;3.78;;
41923;SDS011;27613;48.116;11.656;2022-10-31T05:33:07;7.20;;;3.88;;
41923;SDS011;27613;48.116;11.656;2022-10-31T05:35:35;7.40;;;3.53;;
41923;SDS011;27613;48.116;11.656;2022-10-31T05:38:00;8.60;;;3.50;;
41923;SDS011;27613;48.116;11.656;2022-10-31T05:40:26;8.63;;;3.88;;
41923;SDS011;27613;48.116;11.656;2022-10-31T05:42:53;9.05;;;3.83;;
41923;SDS011;27613;48.116;11.656;2022-10-31T05:45:20;5.72;;;3.60;;
41923;SDS011;27613;48.116;11.656;2022-10-31T05:47:59;4.78;;;3.20;;
41923;SDS011;27613;48.116;11.656;2022-10-31T05:50:27;7.90;;;3.33;;
41923;SDS011;27613;48.116;11.656;2022-10-31T05:52:56;8.43;;;3.97;;
41923;SDS011;27613;48.116;11.656;2022-10-31T05:55:23;5.47;;;3.10;;
41923;SDS011;27613;48.116;11.656;2022-10-31T05:57:50;6.40;;;3.45;;
41923;SDS011;27613;48.116;11.656;2022-10-31T06:00:17;6.20;;;3.50;;
41923;SDS011;27613;48.116;11.656;2022-10-31T06:02:43;7.57;;;3.15;;
41923;SDS011;27613;48.116;11.656;2022-10-31T06:05:09;10.93;;;3.92;;
41923;SDS011;27613;48.116;11.656;2022-10-31T06:07:34;9.40;;;3.20;;
41923;SDS011;27613;48.116;11.656;2022-10-31T06:10:01;7.07;;;3.30;;
41923;SDS011;27613;48.116;11.656;2022-10-31T06:12:30;6.72;;;3.40;;
41923;SDS011;27613;48.116;11.656;2022-10-31T06:14:56;6.95;;;3.53;;
41923;SDS011;27613;48.116;11.656;2022-10-31T06:17:22;6.38;;;3.40;;
41923;SDS011;27613;48.116;11.656;2022-10-31T06:19:47;5.32;;;3.17;;
41923;SDS011;27613;48.116;11.656;2022-10-31T06:22:13;7.78;;;3.72;;
41923;SDS011;27613;48.116;11.656;2022-10-31T06:24:40;7.38;;;3.88;;
41923;SDS011;27613;48.116;11.656;2022-10-31T06:27:05;5.30;;;3.53;;
41923;SDS011;27613;48.116;11.656;2022-10-31T06:29:31;13.68;;;3.75;;
41923;SDS011;27613;48.116;11.656;2022-10-31T06:31:57;6.15;;;3.42;;
41923;SDS011;27613;48.116;11.656;2022-10-31T06:34:22;6.97;;;3.78;;
41923;SDS011;27613;48.116;11.656;2022-10-31T06:36:48;10.05;;;3.20;;
41923;SDS011;27613;48.116;11.656;2022-10-31T06:39:14;5.75;;;3.17;;
41923;SDS011;27613;48.116;11.656;2022-10-31T06:41:40;7.43;;;3.45;;
41923;SDS011;27613;48.116;11.656;2022-10-31T06:44:06;8.80;;;3.40;;
41923;SDS011;27613;48.116;11.656;2022-10-31T06:46:32;14.63;;;3.50;;
41923;SDS011;27613;48.116;11.656;2022-10-31T06:48:58;7.43;;;3.03;;
41923;SDS011;27613;48.116;11.656;2022-10-31T06:51:24;9.38;;;3.53;;
41923;SDS011;27613;48.116;11.656;2022-10-31T06:53:50;12.15;;;3.55;;
41923;SDS011;27613;48.116;11.656;2022-10-31T06:56:16;8.82;;;3.85;;
41923;SDS011;27613;48.116;11.656;2022-10-31T06:58:41;8.02;;;3.15;;
41923;SDS011;27613;48.116;11.656;2022-10-31T07:01:07;7.22;;;3.40;;
41923;SDS011;27613;48.116;11.656;2022-10-31T07:03:32;8.30;;;3.50;;
41923;SDS011;27613;48.116;11.656;2022-10-31T07:05:58;6.82;;;3.70;;
41923;SDS011;27613;48.116;11.656;2022-10-31T07:08:24;10.55;;;3.38;;
41923;SDS011;27613;48.116;11.656;2022-10-31T07:10:53;6.47;;;3.20;;
41923;SDS011;27613;48.116;11.656;2022-10-31T07:13:21;7.90;;;2.95;;
41923;SDS011;27613;48.116;11.656;2022-10-31T07:15:50;7.80;;;2.90;;
41923;SDS011;27613;48.116;11.656;2022-10-31T07:18:18;7.28;;;3.03;;
41923;SDS011;27613;48.116;11.656;2022-10-31T07:20:44;8.55;;;3.40;;
41923;SDS011;27613;48.116;11.656;2022-10-31T07:23:10;10.90;;;3.30;;
41923;SDS011;27613;48.116;11.656;2022-10-31T07:25:36;10.10;;;3.05;;
41923;SDS011;27613;48.116;11.656;2022-10-31T07:28:05;7.80;;;3.65;;
41923;SDS011;27613;48.116;11.656;2022-10-31T07:30:31;7.30;;;3.22;;
41923;SDS011;27613;48.116;11.656;2022-10-31T07:32:57;6.80;;;3.25;;
41923;SDS011;27613;48.116;11.656;2022-10-31T07:35:24;7.57;;;3.40;;
41923;SDS011;27613;48.116;11.656;2022-10-31T07:37:53;7.18;;;3.70;;
41923;SDS011;27613;48.116;11.656;2022-10-31T07:40:20;15.23;;;4.60;;
41923;SDS011;27613;48.116;11.656;2022-10-31T07:42:48;8.20;;;4.28;;
41923;SDS011;27613;48.116;11.656;2022-10-31T07:45:16;8.00;;;3.85;;
41923;SDS011;27613;48.116;11.656;2022-10-31T07:47:46;8.43;;;3.70;;
41923;SDS011;27613;48.116;11.656;2022-10-31T07:50:14;9.27;;;3.08;;
41923;SDS011;27613;48.116;11.656;2022-10-31T07:52:41;16.23;;;3.40;;
41923;SDS011;27613;48.116;11.656;2022-10-31T07:55:07;6.53;;;2.92;;
41923;SDS011;27613;48.116;11.656;2022-10-31T07:57:34;8.90;;;3.40;;
41923;SDS011;27613;48.116;11.656;2022-10-31T08:00:02;8.02;;;3.70;;
41923;SDS011;27613;48.116;11.656;2022-10-31T08:02:31;6.40;;;2.83;;
41923;SDS011;27613;48.116;11.656;2022-10-31T08:04:56;23.02;;;3.25;;
41923;SDS011;27613;48.116;11.656;2022-10-31T08:07:22;7.68;;;2.60;;
41923;SDS011;27613;48.116;11.656;2022-10-31T08:09:48;5.20;;;2.50;;
41923;SDS011;27613;48.116;11.656;2022-10-31T08:12:13;6.75;;;2.70;;
41923;SDS011;27613;48.116;11.656;2022-10-31T08:14:39;7.80;;;2.65;;
41923;SDS011;27613;48.116;11.656;2022-10-31T08:17:04;9.65;;;2.78;;
41923;SDS011;27613;48.116;11.656;2022-10-31T08:19:30;5.15;;;2.47;;
41923;SDS011;27613;48.116;11.656;2022-10-31T08:21:55;4.72;;;2.35;;
41923;SDS011;27613;48.116;11.656;2022-10-31T08:24:21;17.15;;;2.70;;
41923;SDS011;27613;48.116;11.656;2022-10-31T08:26:47;4.88;;;2.55;;
41923;SDS011;27613;48.116;11.656;2022-10-31T08:29:13;6.05;;;2.45;;
41923;SDS011;27613;48.116;11.656;2022-10-31T08:31:42;3.70;;;2.08;;
41923;SDS011;27613;48.116;11.656;2022-10-31T08:34:08;6.32;;;2.72;;
41923;SDS011;27613;48.116;11.656;2022-10-31T08:36:34;7.35;;;2.80;;
41923;SDS011;27613;48.116;11.656;2022-10-31T08:39:00;5.30;;;2.58;;
41923;SDS011;27613;48.116;11.656;2022-10-31T08:41:28;9.68;;;3.00;;
41923;SDS011;27613;48.116;11.656;2022-10-31T08:43:54;6.28;;;2.70;;
41923;SDS011;27613;48.116;11.656;2022-10-31T08:46:20;5.85;;;2.65;;
41923;SDS011;27613;48.116;11.656;2022-10-31T08:48:49;6.47;;;2.92;;
41923;SDS011;27613;48.116;11.656;2022-10-31T08:51:15;7.80;;;2.92;;
41923;SDS011;27613;48.116;11.656;2022-10-31T08:53:40;8.85;;;2.97;;
41923;SDS011;27613;48.116;11.656;2022-10-31T08:56:06;9.98;;;3.55;;
41923;SDS011;27613;48.116;11.656;2022-10-31T08:58:32;4.88;;;3.00;;
41923;SDS011;27613;48.116;11.656;2022-10-31T09:00:58;4.88;;;2.67;;
41923;SDS011;27613;48.116;11.656;2022-10-31T09:03:29;5.88;;;3.03;;
41923;SDS011;27613;48.116;11.656;2022-10-31T09:06:01;9.23;;;3.13;;
41923;SDS011;27613;48.116;11.656;2022-10-31T09:08:31;6.47;;;3.03;;
41923;SDS011;27613;48.116;11.656;2022-10-31T09:10:57;16.98;;;3.22;;
41923;SDS011;27613;48.116;11.656;2022-10-31T09:13:23;6.82;;;3.30;;
41923;SDS011;27613;48.116;11.656;2022-10-31T09:15:49;4.90;;;2.95;;
41923;SDS011;27613;48.116;11.656;2022-10-31T09:18:17;7.80;;;2.75;;
41923;SDS011;27613;48.116;11.656;2022-10-31T09:20:45;7.03;;;3.25;;
41923;SDS011;27613;48.116;11.656;2022-10-31T09:23:16;5.93;;;2.58;;
41923;SDS011;27613;48.116;11.656;2022-10-31T09:25:44;5.03;;;2.67;;
41923;SDS011;27613;48.116;11.656;2022-10-31T09:28:11;6.05;;;2.78;;
41923;SDS011;27613;48.116;11.656;2022-10-31T09:30:38;6.55;;;2.80;;
41923;SDS011;27613;48.116;11.656;2022-10-31T09:33:05;5.57;;;2.55;;
41923;SDS011;27613;48.116;11.656;2022-10-31T09:35:32;9.70;;;3.38;;
41923;SDS011;27613;48.116;11.656;2022-10-31T09:37:59;7.60;;;2.63;;
41923;SDS011;27613;48.116;11.656;2022-10-31T09:40:34;7.53;;;2.65;;
41923;SDS011;27613;48.116;11.656;2022-10-31T09:51:19;5.07;;;2.20;;
41923;SDS011;27613;48.116;11.656;2022-10-31T09:56:23;15.45;;;3.00;;
41923;SDS011;27613;48.116;11.656;2022-10-31T09:58:51;7.00;;;2.50;;
41923;SDS011;27613;48.116;11.656;2022-10-31T10:01:26;6.43;;;2.22;;
41923;SDS011;27613;48.116;11.656;2022-10-31T10:04:20;4.85;;;2.20;;
41923;SDS011;27613;48.116;11.656;2022-10-31T10:06:56;5.97;;;2.50;;
41923;SDS011;27613;48.116;11.656;2022-10-31T10:09:24;7.43;;;2.47;;
41923;SDS011;27613;48.116;11.656;2022-10-31T10:11:58;8.25;;;2.50;;
41923;SDS011;27613;48.116;11.656;2022-10-31T10:14:46;4.40;;;2.33;;
41923;SDS011;27613;48.116;11.656;2022-10-31T10:18:00;6.32;;;2.70;;
41923;SDS011;27613;48.116;11.656;2022-10-31T10:26:49;6.53;;;2.72;;
41923;SDS011;27613;48.116;11.656;2022-10-31T10:31:57;4.88;;;2.15;;
41923;SDS011;27613;48.116;11.656;2022-10-31T10:34:30;7.32;;;2.45;;
41923;SDS011;27613;48.116;11.656;2022-10-31T10:37:17;7.68;;;2.72;;
41923;SDS011;27613;48.116;11.656;2022-10-31T10:39:56;7.75;;;2.58;;
41923;SDS011;27613;48.116;11.656;2022-10-31T10:42:45;6.22;;;2.47;;
41923;SDS011;27613;48.116;11.656;2022-10-31T10:45:43;11.50;;;2.70;;
41923;SDS011;27613;48.116;11.656;2022-10-31T10:51:15;8.57;;;3.08;;
41923;SDS011;27613;48.116;11.656;2022-10-31T10:56:48;6.85;;;2.97;;
41923;SDS011;27613;48.116;11.656;2022-10-31T10:59:43;10.00;;;3.22;;
41923;SDS011;27613;48.116;11.656;2022-10-31T11:02:15;6.32;;;2.03;;
41923;SDS011;27613;48.116;11.656;2022-10-31T11:04:49;7.80;;;3.58;;
41923;SDS011;27613;48.116;11.656;2022-10-31T11:07:16;8.68;;;2.92;;
41923;SDS011;27613;48.116;11.656;2022-10-31T11:09:42;7.63;;;2.67;;
41923;SDS011;27613;48.116;11.656;2022-10-31T11:12:10;8.65;;;2.88;;
41923;SDS011;27613;48.116;11.656;2022-10-31T11:14:52;8.60;;;2.95;;
41923;SDS011;27613;48.116;11.656;2022-10-31T11:17:31;9.70;;;2.92;;
41923;SDS011;27613;48.116;11.656;2022-10-31T11:22:42;6.27;;;2.90;;
41923;SDS011;27613;48.116;11.656;2022-10-31T11:27:45;6.57;;;2.38;;
41923;SDS011;27613;48.116;11.656;2022-10-31T11:30:12;5.85;;;2.90;;
41923;SDS011;27613;48.116;11.656;2022-10-31T11:32:43;10.52;;;3.17;;
41923;SDS011;27613;48.116;11.656;2022-10-31T11:35:14;6.75;;;2.58;;
41923;SDS011;27613;48.116;11.656;2022-10-31T11:37:43;9.75;;;3.20;;
41923;SDS011;27613;48.116;11.656;2022-10-31T11:40:18;10.93;;;3.40;;
41923;SDS011;27613;48.116;11.656;2022-10-31T11:42:46;9.48;;;3.35;;
41923;SDS011;27613;48.116;11.656;2022-10-31T11:47:47;13.25;;;2.97;;
41923;SDS011;27613;48.116;11.656;2022-10-31T11:50:23;8.10;;;2.70;;
41923;SDS011;27613;48.116;11.656;2022-10-31T11:52:53;14.10;;;3.17;;
41923;SDS011;27613;48.116;11.656;2022-10-31T11:55:30;9.90;;;3.20;;
41923;SDS011;27613;48.116;11.656;2022-10-31T11:57:58;6.15;;;2.60;;
41923;SDS011;27613;48.116;11.656;2022-10-31T12:03:04;7.53;;;2.63;;
41923;SDS011;27613;48.116;11.656;2022-10-31T12:05:37;7.97;;;2.72;;
41923;SDS011;27613;48.116;11.656;2022-10-31T12:08:09;8.52;;;2.88;;
41923;SDS011;27613;48.116;11.656;2022-10-31T12:10:51;8.45;;;3.42;;
41923;SDS011;27613;48.116;11.656;2022-10-31T12:16:02;9.00;;;3.03;;
41923;SDS011;27613;48.116;11.656;2022-10-31T12:26:42;13.75;;;4.50;;
41923;SDS011;27613;48.116;11.656;2022-10-31T12:29:28;7.32;;;2.72;;
41923;SDS011;27613;48.116;11.656;2022-10-31T12:45:50;8.50;;;2.63;;
41923;SDS011;27613;48.116;11.656;2022-10-31T12:48:46;7.25;;;3.08;;
41923;SDS011;27613;48.116;11.656;2022-10-31T12:51:31;8.90;;;3.42;;
41923;SDS011;27613;48.116;11.656;2022-10-31T12:56:59;6.15;;;3.03;;
41923;SDS011;27613;48.116;11.656;2022-10-31T12:59:44;8.32;;;3.40;;
41923;SDS011;27613;48.116;11.656;2022-10-31T13:05:00;7.95;;;3.20;;
41923;SDS011;27613;48.116;11.656;2022-10-31T13:07:39;5.25;;;2.50;;
41923;SDS011;27613;48.116;11.656;2022-10-31T13:12:48;8.00;;;2.90;;
41923;SDS011;27613;48.116;11.656;2022-10-31T13:15:17;6.55;;;3.00;;
41923;SDS011;27613;48.116;11.656;2022-10-31T13:17:47;8.30;;;3.08;;
41923;SDS011;27613;48.116;11.656;2022-10-31T13:20:17;8.80;;;3.05;;
41923;SDS011;27613;48.116;11.656;2022-10-31T13:25:56;8.30;;;3.20;;
41923;SDS011;27613;48.116;11.656;2022-10-31T13:28:27;7.28;;;2.75;;
41923;SDS011;27613;48.116;11.656;2022-10-31T13:31:00;10.13;;;3.75;;
41923;SDS011;27613;48.116;11.656;2022-10-31T13:33:28;10.10;;;4.70;;
41923;SDS011;27613;48.116;11.656;2022-10-31T13:46:39;12.27;;;3.97;;
41923;SDS011;27613;48.116;11.656;2022-10-31T13:54:37;6.45;;;2.95;;
41923;SDS011;27613;48.116;11.656;2022-10-31T13:57:29;8.98;;;3.55;;
41923;SDS011;27613;48.116;11.656;2022-10-31T13:59:59;13.65;;;3.28;;
41923;SDS011;27613;48.116;11.656;2022-10-31T14:02:51;10.10;;;3.17;;
41923;SDS011;27613;48.116;11.656;2022-10-31T14:05:24;10.80;;;3.53;;
41923;SDS011;27613;48.116;11.656;2022-10-31T14:07:58;11.07;;;3.45;;
41923;SDS011;27613;48.116;11.656;2022-10-31T14:13:17;8.38;;;4.57;;
41923;SDS011;27613;48.116;11.656;2022-10-31T14:18:28;11.90;;;4.38;;
41923;SDS011;27613;48.116;11.656;2022-10-31T14:21:00;13.35;;;3.70;;
41923;SDS011;27613;48.116;11.656;2022-10-31T14:28:39;7.63;;;3.25;;
41923;SDS011;27613;48.116;11.656;2022-10-31T14:31:21;8.23;;;3.00;;
41923;SDS011;27613;48.116;11.656;2022-10-31T14:33:52;10.32;;;2.75;;
41923;SDS011;27613;48.116;11.656;2022-10-31T14:52:46;7.45;;;3.08;;
41923;SDS011;27613;48.116;11.656;2022-10-31T14:55:14;11.98;;;3.08;;
41923;SDS011;27613;48.116;11.656;2022-10-31T14:57:44;7.30;;;3.03;;
41923;SDS011;27613;48.116;11.656;2022-10-31T15:00:19;5.95;;;2.63;;
41923;SDS011;27613;48.116;11.656;2022-10-31T15:05:42;9.80;;;3.58;;
41923;SDS011;27613;48.116;11.656;2022-10-31T15:08:33;11.73;;;3.20;;
41923;SDS011;27613;48.116;11.656;2022-10-31T15:11:14;7.45;;;3.10;;
41923;SDS011;27613;48.116;11.656;2022-10-31T15:13:52;7.68;;;3.08;;
41923;SDS011;27613;48.116;11.656;2022-10-31T15:16:21;8.02;;;3.40;;
41923;SDS011;27613;48.116;11.656;2022-10-31T15:18:53;9.98;;;3.78;;
41923;SDS011;27613;48.116;11.656;2022-10-31T15:21:29;9.00;;;3.28;;
41923;SDS011;27613;48.116;11.656;2022-10-31T15:23:57;8.48;;;3.30;;
41923;SDS011;27613;48.116;11.656;2022-10-31T15:26:33;6.45;;;2.97;;
41923;SDS011;27613;48.116;11.656;2022-10-31T15:29:04;6.22;;;3.05;;
41923;SDS011;27613;48.116;11.656;2022-10-31T15:31:35;9.23;;;4.05;;
41923;SDS011;27613;48.116;11.656;2022-10-31T15:34:46;11.43;;;3.35;;
41923;SDS011;27613;48.116;11.656;2022-10-31T15:36:51;11.13;;;4.20;;
41923;SDS011;27613;48.116;11.656;2022-10-31T15:39:17;12.38;;;3.83;;
41923;SDS011;27613;48.116;11.656;2022-10-31T15:44:15;10.98;;;5.05;;
41923;SDS011;27613;48.116;11.656;2022-10-31T15:46:44;9.15;;;4.70;;
41923;SDS011;27613;48.116;11.656;2022-10-31T15:49:40;10.90;;;5.43;;
41923;SDS011;27613;48.116;11.656;2022-10-31T15:54:49;15.68;;;5.18;;
41923;SDS011;27613;48.116;11.656;2022-10-31T15:57:17;11.95;;;5.70;;
41923;SDS011;27613;48.116;11.656;2022-10-31T15:59:45;16.55;;;4.85;;
41923;SDS011;27613;48.116;11.656;2022-10-31T16:02:15;16.00;;;4.88;;
41923;SDS011;27613;48.116;11.656;2022-10-31T16:04:55;9.48;;;5.05;;
41923;SDS011;27613;48.116;11.656;2022-10-31T16:07:23;9.43;;;4.45;;
41923;SDS011;27613;48.116;11.656;2022-10-31T16:09:56;14.00;;;5.35;;
41923;SDS011;27613;48.116;11.656;2022-10-31T16:12:24;10.82;;;5.75;;
41923;SDS011;27613;48.116;11.656;2022-10-31T16:15:00;14.73;;;7.78;;
41923;SDS011;27613;48.116;11.656;2022-10-31T16:17:26;19.40;;;8.85;;
41923;SDS011;27613;48.116;11.656;2022-10-31T16:19:57;20.30;;;6.22;;
41923;SDS011;27613;48.116;11.656;2022-10-31T16:22:29;19.98;;;6.82;;
41923;SDS011;27613;48.116;11.656;2022-10-31T16:27:53;12.48;;;5.38;;
41923;SDS011;27613;48.116;11.656;2022-10-31T16:30:29;15.60;;;4.95;;
41923;SDS011;27613;48.116;11.656;2022-10-31T16:36:28;13.88;;;5.18;;
41923;SDS011;27613;48.116;11.656;2022-10-31T16:38:53;8.73;;;5.35;;
41923;SDS011;27613;48.116;11.656;2022-10-31T16:41:21;9.18;;;5.35;;
41923;SDS011;27613;48.116;11.656;2022-10-31T16:43:49;15.68;;;5.45;;
41923;SDS011;27613;48.116;11.656;2022-10-31T16:46:29;14.48;;;6.22;;
41923;SDS011;27613;48.116;11.656;2022-10-31T16:48:58;11.85;;;5.85;;
41923;SDS011;27613;48.116;11.656;2022-10-31T16:51:23;18.13;;;7.22;;
41923;SDS011;27613;48.116;11.656;2022-10-31T16:53:52;18.35;;;7.35;;
41923;SDS011;27613;48.116;11.656;2022-10-31T16:56:22;11.93;;;6.15;;
41923;SDS011;27613;48.116;11.656;2022-10-31T16:58:52;15.48;;;6.65;;
41923;SDS011;27613;48.116;11.656;2022-10-31T17:01:18;12.27;;;5.80;;
41923;SDS011;27613;48.116;11.656;2022-10-31T17:03:43;12.57;;;6.50;;
41923;SDS011;27613;48.116;11.656;2022-10-31T17:06:12;13.82;;;6.90;;
41923;SDS011;27613;48.116;11.656;2022-10-31T17:08:38;11.48;;;7.05;;
41923;SDS011;27613;48.116;11.656;2022-10-31T17:11:04;13.75;;;7.55;;
41923;SDS011;27613;48.116;11.656;2022-10-31T17:13:32;15.45;;;8.38;;
41923;SDS011;27613;48.116;11.656;2022-10-31T17:15:59;16.10;;;8.57;;
41923;SDS011;27613;48.116;11.656;2022-10-31T17:18:27;17.45;;;8.93;;
41923;SDS011;27613;48.116;11.656;2022-10-31T17:20:57;17.30;;;8.35;;
41923;SDS011;27613;48.116;11.656;2022-10-31T17:23:24;20.48;;;7.63;;
41923;SDS011;27613;48.116;11.656;2022-10-31T17:25:50;12.50;;;7.65;;
41923;SDS011;27613;48.116;11.656;2022-10-31T17:28:16;23.23;;;8.35;;